createdAt,value
2022-08-30T00:01:32.615Z,58.10
2022-08-30T00:04:01.476Z,57.91
2022-08-30T00:06:31.016Z,58.06
2022-08-30T00:08:59.785Z,57.95
2022-08-30T00:11:28.227Z,58.02
2022-08-30T00:13:56.521Z,58.36
2022-08-30T00:16:24.695Z,58.22
2022-08-30T00:18:52.534Z,57.95
2022-08-30T00:21:19.891Z,58.04
2022-08-30T00:23:47.208Z,58.17
2022-08-30T00:26:14.813Z,58.14
2022-08-30T00:28:42.263Z,58.40
2022-08-30T00:31:10.515Z,58.07
2022-08-30T00:33:42.762Z,58.07
2022-08-30T00:36:10.155Z,58.09
2022-08-30T00:38:37.488Z,58.33
2022-08-30T00:41:05.203Z,58.16
2022-08-30T00:43:34.838Z,58.04
2022-08-30T00:46:08.246Z,57.96
2022-08-30T00:48:39.050Z,57.91
2022-08-30T00:51:10.051Z,58.08
2022-08-30T00:53:39.680Z,57.99
2022-08-30T00:56:07.317Z,57.86
2022-08-30T00:58:37.783Z,57.86
2022-08-30T01:01:06.636Z,57.64
2022-08-30T01:03:34.671Z,57.66
2022-08-30T01:06:03.173Z,57.71
2022-08-30T01:08:30.801Z,57.66
2022-08-30T01:10:58.485Z,57.50
2022-08-30T01:13:27.275Z,57.36
2022-08-30T01:15:55.865Z,57.60
2022-08-30T01:18:23.996Z,57.64
2022-08-30T01:21:03.583Z,57.57
2022-08-30T01:23:32.452Z,57.22
2022-08-30T01:26:00.495Z,57.27
2022-08-30T01:28:29.194Z,57.44
2022-08-30T01:30:56.914Z,57.66
2022-08-30T01:33:24.811Z,57.93
2022-08-30T01:35:56.329Z,58.11
2022-08-30T01:38:27.905Z,58.23
2022-08-30T01:41:08.548Z,58.38
2022-08-30T01:43:36.786Z,58.24
2022-08-30T01:46:05.272Z,58.39
2022-08-30T01:48:34.138Z,58.38
2022-08-30T01:51:03.108Z,58.57
2022-08-30T01:53:30.628Z,58.58
2022-08-30T01:55:58.260Z,58.73
2022-08-30T01:58:25.866Z,58.74
2022-08-30T02:00:53.313Z,58.76
2022-08-30T02:03:21.079Z,58.93
2022-08-30T02:05:49.123Z,58.91
2022-08-30T02:08:16.573Z,59.00
2022-08-30T02:10:44.612Z,59.05
2022-08-30T02:13:12.237Z,58.90
2022-08-30T02:15:41.630Z,58.98
2022-08-30T02:18:10.691Z,59.06
2022-08-30T02:20:39.851Z,59.10
2022-08-30T02:23:07.200Z,59.09
2022-08-30T02:25:34.889Z,59.14
2022-08-30T02:28:02.572Z,59.14
2022-08-30T02:30:29.948Z,59.33
2022-08-30T02:32:57.577Z,59.38
2022-08-30T02:35:25.500Z,59.43
2022-08-30T02:37:52.983Z,59.24
2022-08-30T02:40:22.138Z,59.25
2022-08-30T02:42:49.817Z,59.24
2022-08-30T02:45:17.199Z,59.11
2022-08-30T02:47:47.208Z,59.22
2022-08-30T02:50:15.319Z,59.67
2022-08-30T02:52:42.718Z,59.66
2022-08-30T02:55:12.592Z,59.86
2022-08-30T02:57:40.206Z,59.75
2022-08-30T03:00:13.932Z,59.67
2022-08-30T03:02:41.880Z,59.22
2022-08-30T03:05:12.924Z,59.72
2022-08-30T03:07:41.585Z,59.59
2022-08-30T03:10:10.881Z,59.60
2022-08-30T03:12:38.303Z,59.58
2022-08-30T03:15:06.832Z,59.40
2022-08-30T03:17:34.539Z,59.32
2022-08-30T03:20:02.242Z,59.27
2022-08-30T03:22:29.911Z,59.50
2022-08-30T03:25:01.608Z,59.47
2022-08-30T03:27:29.561Z,59.73
2022-08-30T03:29:57.196Z,59.58
2022-08-30T03:32:24.604Z,59.59
2022-08-30T03:34:51.932Z,59.47
2022-08-30T03:37:23.252Z,59.58
2022-08-30T03:39:53.075Z,59.61
2022-08-30T03:42:20.714Z,59.81
2022-08-30T03:44:50.556Z,59.63
2022-08-30T03:47:17.929Z,59.75
2022-08-30T03:49:45.612Z,59.84
2022-08-30T03:52:12.945Z,59.84
2022-08-30T03:54:40.424Z,59.74
2022-08-30T03:57:08.035Z,59.98
2022-08-30T03:59:40.692Z,59.67
2022-08-30T04:02:08.335Z,59.92
2022-08-30T04:04:35.975Z,60.08
2022-08-30T04:07:03.649Z,59.92
2022-08-30T04:09:31.421Z,59.91
2022-08-30T04:12:00.171Z,60.02
2022-08-30T04:14:27.508Z,59.96
2022-08-30T04:16:55.173Z,59.92
2022-08-30T04:19:22.803Z,60.32
2022-08-30T04:21:50.230Z,60.17
2022-08-30T04:24:17.810Z,60.36
2022-08-30T04:26:45.442Z,60.43
2022-08-30T04:29:16.450Z,60.37
2022-08-30T04:31:44.769Z,60.31
2022-08-30T04:34:13.587Z,60.36
2022-08-30T04:36:41.165Z,60.42
2022-08-30T04:39:08.776Z,60.50
2022-08-30T04:41:37.761Z,60.82
2022-08-30T04:44:05.124Z,60.68
2022-08-30T04:46:34.688Z,60.64
2022-08-30T04:49:02.731Z,60.42
2022-08-30T04:51:30.163Z,60.22
2022-08-30T04:53:57.507Z,60.06
2022-08-30T04:56:25.315Z,60.27
2022-08-30T04:58:55.004Z,60.54
2022-08-30T05:01:26.112Z,60.58
2022-08-30T05:03:55.209Z,60.50
2022-08-30T05:06:23.959Z,60.53
2022-08-30T05:08:52.791Z,60.32
2022-08-30T05:11:21.049Z,60.27
2022-08-30T05:13:49.735Z,60.34
2022-08-30T05:16:20.232Z,59.76
2022-08-30T05:18:49.320Z,60.02
2022-08-30T05:21:19.878Z,59.60
2022-08-30T05:23:47.910Z,59.44
2022-08-30T05:26:18.370Z,59.29
2022-08-30T05:28:46.096Z,59.39
2022-08-30T05:31:16.502Z,59.38
2022-08-30T05:33:45.067Z,59.58
2022-08-30T05:36:14.036Z,59.39
2022-08-30T05:38:41.502Z,59.37
2022-08-30T05:41:10.917Z,59.39
2022-08-30T05:43:39.072Z,59.28
2022-08-30T05:46:12.646Z,59.04
2022-08-30T05:48:40.762Z,58.86
2022-08-30T05:51:09.467Z,58.85
2022-08-30T05:53:37.420Z,58.86
2022-08-30T05:56:08.221Z,58.52
2022-08-30T05:58:36.156Z,58.20
2022-08-30T06:01:04.717Z,57.58
2022-08-30T06:03:32.939Z,57.13
2022-08-30T06:06:00.936Z,56.61
2022-08-30T06:08:28.280Z,55.85
2022-08-30T06:10:55.893Z,55.63
2022-08-30T06:13:23.493Z,54.46
2022-08-30T06:15:52.571Z,53.46
2022-08-30T06:18:23.520Z,51.83
2022-08-30T06:20:56.153Z,50.57
2022-08-30T06:23:23.857Z,49.83
2022-08-30T06:25:51.174Z,49.12
2022-08-30T06:28:18.582Z,48.70
2022-08-30T06:30:46.348Z,47.04
2022-08-30T06:33:13.699Z,45.67
2022-08-30T06:35:56.701Z,44.70
2022-08-30T06:38:26.606Z,45.35
2022-08-30T06:40:54.165Z,45.45
2022-08-30T06:43:21.574Z,45.21
2022-08-30T06:45:49.193Z,45.27
2022-08-30T06:48:16.678Z,44.44
2022-08-30T06:50:44.897Z,45.01
2022-08-30T06:53:12.801Z,44.94
2022-08-30T06:55:40.435Z,44.39
2022-08-30T06:58:07.759Z,43.86
2022-08-30T07:00:35.460Z,43.52
2022-08-30T07:03:04.085Z,44.38
2022-08-30T07:05:32.815Z,42.47
2022-08-30T07:08:00.432Z,41.70
2022-08-30T07:10:27.763Z,41.20
2022-08-30T07:12:55.137Z,40.64
2022-08-30T07:15:23.014Z,40.61
2022-08-30T07:18:09.282Z,40.89
2022-08-30T07:20:40.359Z,40.51
2022-08-30T07:23:09.298Z,40.05
2022-08-30T07:25:38.030Z,40.42
2022-08-30T07:28:06.243Z,40.18
2022-08-30T07:30:34.491Z,40.00
2022-08-30T07:33:02.376Z,39.35
2022-08-30T07:35:29.764Z,40.32
2022-08-30T07:37:57.476Z,40.20
2022-08-30T07:40:25.497Z,39.83
2022-08-30T07:42:53.132Z,40.52
2022-08-30T07:45:20.818Z,39.57
2022-08-30T07:47:48.435Z,39.25
2022-08-30T07:50:15.872Z,38.90
2022-08-30T07:52:43.217Z,39.07
2022-08-30T07:55:10.868Z,39.75
2022-08-30T07:57:38.319Z,39.17
2022-08-30T08:00:06.465Z,39.16
2022-08-30T08:02:40.688Z,38.15
2022-08-30T08:05:12.805Z,38.20
2022-08-30T08:07:44.051Z,39.02
2022-08-30T08:10:11.759Z,38.63
2022-08-30T08:12:39.897Z,38.02
2022-08-30T08:15:08.895Z,37.23
2022-08-30T08:17:36.679Z,37.67
2022-08-30T08:20:04.745Z,38.28
2022-08-30T08:22:32.094Z,38.02
2022-08-30T08:24:59.804Z,39.19
2022-08-30T08:27:27.145Z,38.44
2022-08-30T08:29:54.805Z,39.18
2022-08-30T08:32:22.403Z,38.38
2022-08-30T08:34:49.729Z,38.30
2022-08-30T08:37:18.399Z,37.38
2022-08-30T08:39:48.588Z,37.80
2022-08-30T08:42:37.100Z,36.40
2022-08-30T08:45:14.268Z,38.75
2022-08-30T08:47:54.363Z,36.79
2022-08-30T08:50:23.288Z,36.76
2022-08-30T08:53:20.451Z,37.28
2022-08-30T08:55:52.788Z,36.41
2022-08-30T08:58:32.254Z,36.28
2022-08-30T09:01:00.154Z,35.98
2022-08-30T09:03:29.352Z,35.53
2022-08-30T09:05:58.194Z,35.60
2022-08-30T09:08:27.242Z,35.73
2022-08-30T09:11:04.801Z,34.99
2022-08-30T09:13:32.705Z,34.76
2022-08-30T09:16:00.760Z,34.17
2022-08-30T09:18:50.100Z,34.47
2022-08-30T09:21:25.295Z,33.70
2022-08-30T09:24:01.630Z,33.70
2022-08-30T09:26:36.850Z,34.72
2022-08-30T09:29:05.753Z,34.75
2022-08-30T09:31:48.781Z,35.02
2022-08-30T09:34:20.316Z,35.14
2022-08-30T09:36:52.280Z,35.53
2022-08-30T09:39:21.221Z,35.35
2022-08-30T09:41:52.924Z,34.72
2022-08-30T09:44:24.579Z,34.52
2022-08-30T09:46:54.409Z,34.47
2022-08-30T09:49:38.695Z,35.04
2022-08-30T09:52:11.910Z,34.89
2022-08-30T09:55:02.178Z,34.14
2022-08-30T09:57:43.006Z,36.33
2022-08-30T10:00:24.730Z,36.56
2022-08-30T10:03:36.321Z,35.42
2022-08-30T10:06:37.290Z,35.23
2022-08-30T10:09:11.038Z,35.74
2022-08-30T10:11:56.331Z,36.54
2022-08-30T10:14:33.182Z,35.28
2022-08-30T10:17:41.763Z,35.65
2022-08-30T10:20:16.819Z,36.12
2022-08-30T10:23:01.191Z,36.19
2022-08-30T10:25:45.312Z,35.31
2022-08-30T10:28:40.711Z,34.07
2022-08-30T10:31:15.078Z,34.21
2022-08-30T10:33:46.735Z,34.50
2022-08-30T10:36:15.361Z,34.17
2022-08-30T10:38:48.657Z,33.47
2022-08-30T10:41:19.171Z,33.26
2022-08-30T10:43:54.751Z,33.86
2022-08-30T10:46:29.535Z,33.85
2022-08-30T10:48:59.259Z,34.54
2022-08-30T10:51:33.479Z,34.91
2022-08-30T10:54:18.581Z,33.86
2022-08-30T10:56:51.343Z,33.66
2022-08-30T10:59:19.184Z,34.30
2022-08-30T11:02:17.989Z,33.09
2022-08-30T11:05:06.899Z,34.71
2022-08-30T11:07:49.266Z,33.61
2022-08-30T11:10:43.220Z,33.88
2022-08-30T11:13:26.441Z,32.53
2022-08-30T11:15:58.433Z,33.92
2022-08-30T11:18:26.626Z,33.06
2022-08-30T11:20:56.404Z,32.45
2022-08-30T11:23:29.105Z,31.61
2022-08-30T11:26:06.337Z,31.73
2022-08-30T11:28:38.409Z,33.54
2022-08-30T11:31:07.641Z,33.41
2022-08-30T11:34:01.287Z,32.39
2022-08-30T11:36:28.946Z,32.16
2022-08-30T11:39:09.399Z,31.98
2022-08-30T11:41:43.861Z,31.36
2022-08-30T11:44:27.612Z,31.48
2022-08-30T11:47:01.032Z,31.64
2022-08-30T11:49:40.247Z,31.98
2022-08-30T11:52:28.866Z,31.11
2022-08-30T11:55:22.757Z,31.93
2022-08-30T11:57:59.542Z,32.80
2022-08-30T12:00:42.046Z,32.13
2022-08-30T12:03:16.027Z,31.79
2022-08-30T12:05:44.236Z,30.07
2022-08-30T12:08:20.751Z,30.19
2022-08-30T12:10:51.712Z,31.25
2022-08-30T12:13:38.113Z,31.15
2022-08-30T12:16:16.312Z,31.20
2022-08-30T12:19:00.179Z,31.53
2022-08-30T12:21:43.601Z,29.75
2022-08-30T12:24:40.010Z,30.45
2022-08-30T12:27:32.615Z,29.15
2022-08-30T12:30:05.831Z,29.35
2022-08-30T12:32:33.747Z,30.01
2022-08-30T12:35:03.904Z,30.96
2022-08-30T12:37:37.445Z,30.98
2022-08-30T12:40:11.290Z,32.25
2022-08-30T12:42:53.789Z,31.37
2022-08-30T12:45:24.817Z,31.25
2022-08-30T12:48:01.935Z,32.28
2022-08-30T12:50:35.501Z,29.81
2022-08-30T12:53:13.550Z,30.62
2022-08-30T12:56:00.850Z,30.75
2022-08-30T12:58:38.944Z,30.18
2022-08-30T13:01:28.195Z,30.64
2022-08-30T13:04:00.894Z,30.46
2022-08-30T13:06:48.721Z,31.04
2022-08-30T13:09:39.884Z,31.15
2022-08-30T13:12:22.742Z,31.60
2022-08-30T13:14:52.398Z,30.68
2022-08-30T13:17:21.449Z,30.76
2022-08-30T13:20:20.570Z,30.09
2022-08-30T13:23:09.589Z,30.08
2022-08-30T13:25:38.456Z,31.18
2022-08-30T13:28:07.384Z,31.16
2022-08-30T13:30:34.764Z,31.15
2022-08-30T13:33:02.611Z,30.75
2022-08-30T13:35:31.409Z,31.08
2022-08-30T13:38:01.323Z,30.03
2022-08-30T13:40:28.692Z,30.36
2022-08-30T13:42:58.563Z,30.20
2022-08-30T13:45:41.953Z,30.32
2022-08-30T13:48:11.329Z,29.53
2022-08-30T13:50:39.581Z,30.57
2022-08-30T13:53:09.219Z,31.17
2022-08-30T13:55:38.311Z,30.04
2022-08-30T13:58:05.693Z,30.78
2022-08-30T14:00:37.844Z,31.18
2022-08-30T14:03:05.893Z,30.26
2022-08-30T14:06:04.722Z,30.46
2022-08-30T14:08:49.830Z,30.01
2022-08-30T14:11:21.214Z,29.77
2022-08-30T14:16:43.131Z,28.88
2022-08-30T14:19:12.440Z,28.75
2022-08-30T14:21:39.835Z,30.52
2022-08-30T14:24:07.439Z,30.62
2022-08-30T14:26:48.392Z,30.89
2022-08-30T14:29:18.979Z,30.44
2022-08-30T14:31:48.600Z,30.15
2022-08-30T14:34:16.705Z,30.21
2022-08-30T14:36:45.613Z,30.18
2022-08-30T14:39:17.996Z,30.05
2022-08-30T14:41:55.591Z,30.12
2022-08-30T14:44:24.669Z,30.89
2022-08-30T14:46:52.678Z,30.06
2022-08-30T14:49:20.740Z,31.12
2022-08-30T14:51:49.440Z,31.23
2022-08-30T14:54:19.547Z,31.93
2022-08-30T14:56:47.433Z,32.36
2022-08-30T14:59:15.332Z,33.09
2022-08-30T15:01:45.225Z,32.91
2022-08-30T15:04:14.289Z,32.43
2022-08-30T15:06:44.283Z,33.30
2022-08-30T15:09:14.803Z,33.83
2022-08-30T15:11:47.055Z,33.74
2022-08-30T15:14:16.292Z,33.51
2022-08-30T15:16:44.325Z,34.48
2022-08-30T15:19:12.595Z,34.24
2022-08-30T15:21:42.899Z,35.18
2022-08-30T15:24:15.027Z,35.57
2022-08-30T15:26:44.114Z,35.88
2022-08-30T15:29:13.516Z,35.81
2022-08-30T15:31:41.904Z,36.11
2022-08-30T15:34:11.100Z,36.05
2022-08-30T15:36:39.025Z,36.21
2022-08-30T15:39:07.206Z,37.21
2022-08-30T15:41:37.787Z,36.91
2022-08-30T15:44:07.706Z,37.14
2022-08-30T15:46:41.685Z,36.62
2022-08-30T15:49:23.323Z,36.76
2022-08-30T15:51:54.325Z,36.67
2022-08-30T15:54:23.617Z,36.71
2022-08-30T15:56:58.801Z,36.69
2022-08-30T15:59:28.305Z,37.14
2022-08-30T16:01:56.118Z,36.84
2022-08-30T16:04:25.701Z,36.68
2022-08-30T16:06:53.211Z,37.12
2022-08-30T16:09:21.697Z,37.24
2022-08-30T16:11:49.342Z,37.55
2022-08-30T16:14:16.779Z,37.55
2022-08-30T16:16:46.207Z,36.58
2022-08-30T16:19:13.903Z,36.81
2022-08-30T16:21:41.985Z,37.17
2022-08-30T16:24:10.399Z,36.85
2022-08-30T16:26:38.462Z,36.57
2022-08-30T16:29:07.365Z,36.25
2022-08-30T16:31:37.007Z,36.79
2022-08-30T16:34:05.059Z,36.52
2022-08-30T16:36:33.212Z,36.20
2022-08-30T16:39:00.911Z,36.69
2022-08-30T16:41:28.774Z,36.68
2022-08-30T16:43:56.432Z,37.22
2022-08-30T16:46:27.236Z,36.64
2022-08-30T16:48:58.915Z,36.87
2022-08-30T16:51:27.944Z,36.72
2022-08-30T16:53:58.106Z,37.47
2022-08-30T16:56:27.226Z,36.21
2022-08-30T16:59:01.091Z,36.73
2022-08-30T17:01:31.773Z,36.88
2022-08-30T17:03:59.740Z,36.96
2022-08-30T17:06:27.203Z,37.59
2022-08-30T17:08:56.332Z,37.03
2022-08-30T17:11:24.577Z,37.62
2022-08-30T17:13:52.519Z,36.49
2022-08-30T17:16:22.574Z,36.22
2022-08-30T17:19:00.894Z,37.35
2022-08-30T17:21:29.366Z,38.66
2022-08-30T17:24:01.835Z,39.12
2022-08-30T17:26:31.938Z,38.12
2022-08-30T17:28:59.366Z,37.03
2022-08-30T17:31:30.629Z,37.58
2022-08-30T17:34:03.570Z,37.36
2022-08-30T17:36:35.176Z,37.16
2022-08-30T17:39:09.380Z,37.23
2022-08-30T17:44:32.744Z,37.54
2022-08-30T17:47:00.547Z,38.58
2022-08-30T17:49:29.595Z,38.66
2022-08-30T17:51:58.535Z,38.60
2022-08-30T17:54:27.609Z,38.71
2022-08-30T17:56:55.537Z,38.92
2022-08-30T17:59:25.614Z,38.96
2022-08-30T18:01:54.525Z,39.08
2022-08-30T18:04:24.844Z,39.49
2022-08-30T18:06:53.323Z,39.54
2022-08-30T18:09:21.046Z,39.70
2022-08-30T18:11:48.750Z,39.65
2022-08-30T18:14:16.464Z,40.35
2022-08-30T18:16:49.821Z,40.53
2022-08-30T18:19:23.893Z,40.89
2022-08-30T18:21:52.023Z,41.16
2022-08-30T18:24:19.503Z,41.36
2022-08-30T18:26:47.140Z,41.72
2022-08-30T18:29:14.802Z,43.52
2022-08-30T18:31:53.643Z,43.60
2022-08-30T18:34:20.997Z,42.81
2022-08-30T18:36:49.158Z,42.43
2022-08-30T18:39:16.786Z,42.23
2022-08-30T18:41:44.263Z,42.36
2022-08-30T18:44:27.330Z,42.18
2022-08-30T18:46:57.231Z,42.50
2022-08-30T18:49:26.220Z,42.80
2022-08-30T18:51:53.632Z,42.54
2022-08-30T18:54:21.240Z,42.56
2022-08-30T18:56:48.964Z,42.62
2022-08-30T18:59:17.264Z,42.81
2022-08-30T19:01:46.562Z,42.95
2022-08-30T19:04:29.490Z,43.12
2022-08-30T19:07:07.624Z,43.14
2022-08-30T19:09:35.805Z,43.24
2022-08-30T19:12:05.173Z,43.37
2022-08-30T19:14:36.869Z,43.60
2022-08-30T19:19:52.607Z,44.30
2022-08-30T19:22:22.174Z,44.39
2022-08-30T19:24:51.367Z,44.25
2022-08-30T19:27:23.721Z,44.32
2022-08-30T19:30:11.099Z,44.04
2022-08-30T19:32:38.599Z,44.05
2022-08-30T19:35:07.039Z,44.07
2022-08-30T19:37:35.046Z,44.18
2022-08-30T19:40:05.188Z,44.24
2022-08-30T19:42:32.870Z,44.23
2022-08-30T19:45:00.348Z,44.20
2022-08-30T19:47:27.751Z,44.35
2022-08-30T19:49:55.362Z,44.33
2022-08-30T19:52:23.101Z,44.23
2022-08-30T19:54:50.547Z,44.26
2022-08-30T19:57:18.168Z,44.43
2022-08-30T19:59:45.641Z,44.07
2022-08-30T20:02:13.717Z,44.06
2022-08-30T20:04:41.468Z,44.03
2022-08-30T20:07:10.286Z,44.20
2022-08-30T20:09:38.033Z,44.17
2022-08-30T20:12:05.751Z,44.49
2022-08-30T20:14:33.111Z,44.71
2022-08-30T20:17:02.338Z,45.04
2022-08-30T20:19:30.460Z,44.94
2022-08-30T20:22:07.094Z,44.91
2022-08-30T20:24:24.179Z,37.50
2022-08-30T20:24:32.330Z,43.86
2022-08-30T20:27:08.958Z,44.90
2022-08-30T20:29:37.861Z,44.74
2022-08-30T20:32:05.634Z,44.49
2022-08-30T20:34:33.640Z,44.32
2022-08-30T20:37:01.244Z,44.50
2022-08-30T20:39:28.606Z,44.67
2022-08-30T20:41:56.002Z,44.82
2022-08-30T20:44:23.888Z,44.95
2022-08-30T20:46:51.217Z,44.97
2022-08-30T20:49:20.284Z,45.08
2022-08-30T20:51:52.821Z,45.20
2022-08-30T20:54:21.800Z,45.16
2022-08-30T20:56:50.188Z,45.36
2022-08-30T20:59:17.795Z,45.43
2022-08-30T21:01:45.151Z,45.78
2022-08-30T21:04:13.249Z,45.94
2022-08-30T21:06:40.577Z,45.87
2022-08-30T21:09:08.719Z,45.82
2022-08-30T21:11:37.546Z,45.65
2022-08-30T21:14:05.223Z,45.59
2022-08-30T21:16:32.596Z,45.62
2022-08-30T21:19:00.443Z,45.43
2022-08-30T21:21:30.307Z,45.92
2022-08-30T21:24:00.776Z,46.16
2022-08-30T21:26:28.608Z,46.07
2022-08-30T21:28:56.015Z,46.11
2022-08-30T21:31:26.238Z,45.76
2022-08-30T21:33:54.785Z,46.06
2022-08-30T21:36:42.120Z,46.39
2022-08-30T21:39:10.523Z,46.45
2022-08-30T21:41:38.823Z,46.44
2022-08-30T21:44:09.522Z,46.55
2022-08-30T21:46:37.494Z,47.18
2022-08-30T21:49:07.358Z,47.26
2022-08-30T21:51:37.975Z,47.11
2022-08-30T21:54:08.539Z,47.42
2022-08-30T21:56:40.538Z,47.42
2022-08-30T21:59:08.662Z,47.84
2022-08-30T22:01:37.703Z,47.94
2022-08-30T22:04:07.501Z,47.98
2022-08-30T22:06:36.631Z,47.94
2022-08-30T22:09:08.937Z,47.71
2022-08-30T22:11:37.355Z,47.62
2022-08-30T22:14:05.834Z,47.63
2022-08-30T22:16:33.930Z,47.97
2022-08-30T22:19:02.041Z,48.04
2022-08-30T22:21:31.539Z,48.14
2022-08-30T22:23:59.028Z,48.20
2022-08-30T22:26:27.056Z,48.20
2022-08-30T22:28:54.740Z,48.42
2022-08-30T22:31:23.026Z,48.32
2022-08-30T22:33:52.120Z,48.37
2022-08-30T22:36:32.944Z,48.41
2022-08-30T22:39:02.025Z,48.49
2022-08-30T22:41:32.710Z,49.08
2022-08-30T22:44:00.086Z,48.94
2022-08-30T22:46:33.613Z,49.16
2022-08-30T22:49:04.260Z,48.98
2022-08-30T22:51:32.227Z,49.04
2022-08-30T22:54:00.794Z,48.93
2022-08-30T22:56:28.679Z,48.94
2022-08-30T22:58:56.875Z,49.00
2022-08-30T23:01:37.061Z,49.28
2022-08-30T23:04:06.875Z,49.27
2022-08-30T23:06:34.691Z,49.18
2022-08-30T23:09:02.469Z,49.13
2022-08-30T23:11:31.820Z,49.23
2022-08-30T23:14:02.264Z,49.02
2022-08-30T23:16:30.039Z,49.30
2022-08-30T23:18:57.448Z,48.89
2022-08-30T23:21:27.567Z,49.20
2022-08-30T23:24:14.706Z,49.45
2022-08-30T23:27:01.658Z,49.48
2022-08-30T23:29:49.908Z,50.38
2022-08-30T23:32:36.343Z,50.26
2022-08-30T23:35:29.017Z,50.58
2022-08-30T23:38:17.889Z,50.22
2022-08-30T23:41:04.226Z,50.59
2022-08-30T23:43:50.120Z,50.95
2022-08-30T23:46:36.282Z,50.46
2022-08-30T23:49:22.731Z,49.65
2022-08-30T23:52:08.815Z,50.57
2022-08-30T23:54:57.153Z,50.80
2022-08-30T23:57:44.978Z,50.61
